createdAt,value
2018-07-23T00:01:44.169Z,20.89
2018-07-23T00:04:13.857Z,20.89
2018-07-23T00:06:43.770Z,20.73
2018-07-23T00:09:13.358Z,20.79
2018-07-23T00:11:42.928Z,20.56
2018-07-23T00:14:12.649Z,20.54
2018-07-23T00:16:42.571Z,20.54
2018-07-23T00:19:12.440Z,20.64
2018-07-23T00:21:42.251Z,20.58
2018-07-23T00:24:12.373Z,20.56
2018-07-23T00:26:42.031Z,20.53
2018-07-23T00:29:12.059Z,20.52
2018-07-23T00:31:41.666Z,20.51
2018-07-23T00:34:11.330Z,20.48
2018-07-23T00:36:40.986Z,20.43
2018-07-23T00:39:11.062Z,20.45
2018-07-23T00:41:40.862Z,20.56
2018-07-23T00:44:10.455Z,20.56
2018-07-23T00:46:39.986Z,20.72
2018-07-23T00:49:09.490Z,20.81
2018-07-23T00:51:39.420Z,20.88
2018-07-23T00:54:09.259Z,20.86
2018-07-23T00:56:39.127Z,20.78
2018-07-23T00:59:08.830Z,20.79
2018-07-23T01:01:38.602Z,20.72
2018-07-23T01:04:08.701Z,20.80
2018-07-23T01:06:38.603Z,20.75
2018-07-23T01:09:10.130Z,20.68
2018-07-23T01:11:39.946Z,20.74
2018-07-23T01:14:09.859Z,20.60
2018-07-23T01:16:39.810Z,20.62
2018-07-23T01:19:09.481Z,20.51
2018-07-23T01:21:39.238Z,20.26
2018-07-23T01:24:08.768Z,20.34
2018-07-23T01:26:38.518Z,20.38
2018-07-23T01:29:08.228Z,20.39
2018-07-23T01:31:37.952Z,20.25
2018-07-23T01:34:07.726Z,19.99
2018-07-23T01:36:37.365Z,19.96
2018-07-23T01:39:09.082Z,19.99
2018-07-23T01:41:38.802Z,19.99
2018-07-23T01:44:08.648Z,20.04
2018-07-23T01:46:38.277Z,20.16
2018-07-23T01:49:08.174Z,20.02
2018-07-23T01:51:37.878Z,20.02
2018-07-23T01:54:07.466Z,19.96
2018-07-23T01:56:37.135Z,20.01
2018-07-23T01:59:06.873Z,20.09
2018-07-23T02:01:36.750Z,20.31
2018-07-23T02:04:06.955Z,20.20
2018-07-23T02:06:36.725Z,20.37
2018-07-23T02:09:09.335Z,20.07
2018-07-23T02:11:39.013Z,20.09
2018-07-23T02:14:09.384Z,19.63
2018-07-23T02:16:38.862Z,19.47
2018-07-23T02:19:08.643Z,19.47
2018-07-23T02:21:38.649Z,19.51
2018-07-23T02:24:08.570Z,19.31
2018-07-23T02:26:38.203Z,19.29
2018-07-23T02:29:07.664Z,19.30
2018-07-23T02:31:37.230Z,19.29
2018-07-23T02:34:06.911Z,19.24
2018-07-23T02:36:36.653Z,19.10
2018-07-23T02:39:09.311Z,19.15
2018-07-23T02:41:39.040Z,19.04
2018-07-23T02:44:08.659Z,19.10
2018-07-23T02:46:38.637Z,19.21
2018-07-23T02:49:08.729Z,19.15
2018-07-23T02:51:38.558Z,19.06
2018-07-23T02:54:08.742Z,18.99
2018-07-23T02:56:38.659Z,19.06
2018-07-23T02:59:08.358Z,19.07
2018-07-23T03:01:37.918Z,18.74
2018-07-23T03:04:07.741Z,18.64
2018-07-23T03:06:37.555Z,18.66
2018-07-23T03:09:08.166Z,18.62
2018-07-23T03:11:37.912Z,18.65
2018-07-23T03:14:07.662Z,18.56
2018-07-23T03:16:37.523Z,18.77
2018-07-23T03:19:07.146Z,18.92
2018-07-23T03:21:37.218Z,18.94
2018-07-23T03:24:06.760Z,19.07
2018-07-23T03:26:36.593Z,19.04
2018-07-23T03:29:06.612Z,18.98
2018-07-23T03:31:36.076Z,18.97
2018-07-23T03:34:05.718Z,18.97
2018-07-23T03:36:35.187Z,18.84
2018-07-23T03:39:06.608Z,18.74
2018-07-23T03:41:36.271Z,18.77
2018-07-23T03:44:05.989Z,18.81
2018-07-23T03:46:35.499Z,18.78
2018-07-23T03:49:05.132Z,18.82
2018-07-23T03:51:34.750Z,18.81
2018-07-23T03:54:04.355Z,18.80
2018-07-23T03:56:34.022Z,18.81
2018-07-23T03:59:03.682Z,18.72
2018-07-23T04:01:33.539Z,18.96
2018-07-23T04:04:03.047Z,19.05
2018-07-23T04:06:32.500Z,19.05
2018-07-23T04:09:02.119Z,19.00
2018-07-23T04:11:31.741Z,19.22
2018-07-23T04:14:01.276Z,19.18
2018-07-23T04:16:30.861Z,19.10
2018-07-23T04:19:00.574Z,19.30
2018-07-23T04:21:30.202Z,19.54
2018-07-23T04:23:59.730Z,19.68
2018-07-23T04:26:29.322Z,19.92
2018-07-23T04:28:59.047Z,20.35
2018-07-23T04:31:28.554Z,20.50
2018-07-23T04:33:58.107Z,20.49
2018-07-23T04:36:27.654Z,20.56
2018-07-23T04:38:57.235Z,20.68
2018-07-23T04:41:26.750Z,20.77
2018-07-23T04:43:56.598Z,20.89
2018-07-23T04:46:26.294Z,21.04
2018-07-23T04:48:55.877Z,21.16
2018-07-23T04:51:25.461Z,21.31
2018-07-23T04:53:55.233Z,21.31
2018-07-23T04:56:24.906Z,21.20
2018-07-23T04:58:54.589Z,21.51
2018-07-23T05:01:24.099Z,21.74
2018-07-23T05:03:53.671Z,21.79
2018-07-23T05:06:23.449Z,21.84
2018-07-23T05:08:52.942Z,21.99
2018-07-23T05:11:22.434Z,22.07
2018-07-23T05:13:51.914Z,22.18
2018-07-23T05:16:21.576Z,22.36
2018-07-23T05:18:51.203Z,22.62
2018-07-23T05:21:21.095Z,22.79
2018-07-23T05:23:50.801Z,22.97
2018-07-23T05:26:20.669Z,23.06
2018-07-23T05:28:50.471Z,23.10
2018-07-23T05:31:20.413Z,22.85
2018-07-23T05:33:50.175Z,22.80
2018-07-23T05:36:19.903Z,22.76
2018-07-23T05:38:49.821Z,22.94
2018-07-23T05:41:19.402Z,23.02
2018-07-23T05:43:49.045Z,22.79
2018-07-23T05:46:18.671Z,22.96
2018-07-23T05:48:48.417Z,23.01
2018-07-23T05:51:18.167Z,23.02
2018-07-23T05:53:48.084Z,23.11
2018-07-23T05:56:17.889Z,23.45
2018-07-23T05:58:47.932Z,23.29
2018-07-23T06:01:17.859Z,23.24
2018-07-23T06:03:47.378Z,23.31
2018-07-23T06:06:17.070Z,23.44
2018-07-23T06:08:46.940Z,23.70
2018-07-23T06:11:16.884Z,23.78
2018-07-23T06:13:46.829Z,23.67
2018-07-23T06:16:16.426Z,23.65
2018-07-23T06:18:46.107Z,23.75
2018-07-23T06:21:15.678Z,23.85
2018-07-23T06:23:45.507Z,23.88
2018-07-23T06:26:15.601Z,23.89
2018-07-23T06:28:45.255Z,23.77
2018-07-23T06:31:14.995Z,23.85
2018-07-23T06:33:44.863Z,23.74
2018-07-23T06:36:14.843Z,23.87
2018-07-23T06:38:44.637Z,23.82
2018-07-23T06:41:14.287Z,23.68
2018-07-23T06:43:44.404Z,23.76
2018-07-23T06:46:14.170Z,23.93
2018-07-23T06:48:43.738Z,24.20
2018-07-23T06:51:13.258Z,23.97
2018-07-23T06:53:42.792Z,24.11
2018-07-23T06:56:12.394Z,24.26
2018-07-23T06:58:42.036Z,24.03
2018-07-23T07:01:11.538Z,24.07
2018-07-23T07:03:41.329Z,24.10
2018-07-23T07:06:11.310Z,23.99
2018-07-23T07:08:41.379Z,24.25
2018-07-23T07:11:11.147Z,24.27
2018-07-23T07:13:40.817Z,24.36
2018-07-23T07:16:10.669Z,24.37
2018-07-23T07:18:40.399Z,24.31
2018-07-23T07:21:10.021Z,24.39
2018-07-23T07:23:39.770Z,24.33
2018-07-23T07:26:09.288Z,24.24
2018-07-23T07:28:38.807Z,24.30
2018-07-23T07:31:08.354Z,24.44
2018-07-23T07:33:38.186Z,24.36
2018-07-23T07:36:07.839Z,24.34
2018-07-23T07:38:37.534Z,24.45
2018-07-23T07:41:07.954Z,24.22
2018-07-23T07:43:38.079Z,24.64
2018-07-23T07:46:07.647Z,24.68
2018-07-23T07:48:37.450Z,24.56
2018-07-23T07:51:07.397Z,24.77
2018-07-23T07:53:37.537Z,24.72
2018-07-23T07:56:07.250Z,24.64
2018-07-23T07:58:36.811Z,24.73
2018-07-23T08:01:06.314Z,24.80
2018-07-23T08:03:36.359Z,24.86
2018-07-23T08:06:06.039Z,25.07
2018-07-23T08:08:35.830Z,24.86
2018-07-23T08:11:05.609Z,25.14
2018-07-23T08:13:35.581Z,25.26
2018-07-23T08:16:05.526Z,25.26
2018-07-23T08:18:35.662Z,25.48
2018-07-23T08:21:05.394Z,25.46
2018-07-23T08:23:35.247Z,25.52
2018-07-23T08:26:05.425Z,25.28
2018-07-23T08:28:35.545Z,25.70
2018-07-23T08:31:05.136Z,25.71
2018-07-23T08:33:34.766Z,26.03
2018-07-23T08:36:04.375Z,26.05
2018-07-23T08:38:34.282Z,26.39
2018-07-23T08:41:04.085Z,26.02
2018-07-23T08:43:33.921Z,25.98
2018-07-23T08:46:03.573Z,26.09
2018-07-23T08:48:33.478Z,26.19
2018-07-23T08:51:03.452Z,26.44
2018-07-23T08:53:33.160Z,26.39
2018-07-23T08:56:02.789Z,26.25
2018-07-23T08:58:32.503Z,26.38
2018-07-23T09:01:02.254Z,26.30
2018-07-23T09:03:31.910Z,26.49
2018-07-23T09:06:01.543Z,26.70
2018-07-23T09:08:31.120Z,26.77
2018-07-23T09:11:01.137Z,26.77
2018-07-23T09:13:30.994Z,26.54
2018-07-23T09:16:00.952Z,26.68
2018-07-23T09:18:30.639Z,26.74
2018-07-23T09:21:00.711Z,26.80
2018-07-23T09:23:30.682Z,26.69
2018-07-23T09:26:00.397Z,26.50
2018-07-23T09:28:30.328Z,26.56
2018-07-23T09:31:00.233Z,26.29
2018-07-23T09:33:29.967Z,26.90
2018-07-23T09:35:59.735Z,27.26
2018-07-23T09:38:29.385Z,27.57
2018-07-23T09:40:59.090Z,27.72
2018-07-23T09:43:28.764Z,27.63
2018-07-23T09:45:58.410Z,27.46
2018-07-23T09:48:28.032Z,27.04
2018-07-23T09:50:58.107Z,27.30
2018-07-23T09:53:27.800Z,27.26
2018-07-23T09:55:57.750Z,27.32
2018-07-23T09:58:27.666Z,27.15
2018-07-23T10:01:02.248Z,27.06
2018-07-23T10:03:31.939Z,26.96
2018-07-23T10:06:01.510Z,26.84
2018-07-23T10:08:31.340Z,26.30
2018-07-23T10:11:01.377Z,26.07
2018-07-23T10:13:31.336Z,25.52
2018-07-23T10:16:00.796Z,24.26
2018-07-23T10:18:30.702Z,23.60
2018-07-23T10:21:00.315Z,22.73
2018-07-23T10:23:30.492Z,23.02
2018-07-23T10:26:00.103Z,22.47
2018-07-23T10:28:29.909Z,22.34
2018-07-23T10:30:59.645Z,21.53
2018-07-23T10:33:29.560Z,21.60
2018-07-23T10:35:59.257Z,21.48
2018-07-23T10:38:30.076Z,21.13
2018-07-23T10:40:59.831Z,20.94
2018-07-23T10:43:29.331Z,20.78
2018-07-23T10:45:59.029Z,20.45
2018-07-23T10:48:28.565Z,20.37
2018-07-23T10:50:58.345Z,20.34
2018-07-23T10:53:28.282Z,20.16
2018-07-23T10:55:57.924Z,20.12
2018-07-23T10:58:27.708Z,20.01
2018-07-23T11:00:57.687Z,19.99
2018-07-23T11:03:27.419Z,19.98
2018-07-23T11:05:57.110Z,19.87
2018-07-23T11:08:26.866Z,19.77
2018-07-23T11:10:56.425Z,19.86
2018-07-23T11:13:26.315Z,19.84
2018-07-23T11:15:56.158Z,19.87
2018-07-23T11:18:25.803Z,19.91
2018-07-23T11:20:55.410Z,19.94
2018-07-23T11:23:25.107Z,19.79
2018-07-23T11:25:55.116Z,19.80
2018-07-23T11:28:24.955Z,20.01
2018-07-23T11:30:54.670Z,20.01
2018-07-23T11:33:24.648Z,20.02
2018-07-23T11:35:54.749Z,20.21
2018-07-23T11:38:24.552Z,20.41
2018-07-23T11:40:54.222Z,20.67
2018-07-23T11:43:24.007Z,20.94
2018-07-23T11:45:54.159Z,21.14
2018-07-23T11:48:24.003Z,21.36
2018-07-23T11:50:53.660Z,21.61
2018-07-23T11:53:23.307Z,21.77
2018-07-23T11:55:53.663Z,21.89
2018-07-23T11:58:23.316Z,22.00
2018-07-23T12:00:53.186Z,22.08
2018-07-23T12:03:22.920Z,22.13
2018-07-23T12:05:52.702Z,22.32
2018-07-23T12:08:22.310Z,22.49
2018-07-23T12:10:51.794Z,22.60
2018-07-23T12:13:21.388Z,22.73
2018-07-23T12:15:51.300Z,22.95
2018-07-23T12:18:21.290Z,23.33
2018-07-23T12:20:51.140Z,23.56
2018-07-23T12:23:20.881Z,23.76
2018-07-23T12:25:50.386Z,24.01
2018-07-23T12:28:19.882Z,24.47
2018-07-23T12:30:49.592Z,24.60
2018-07-23T12:33:19.287Z,24.98
2018-07-23T12:35:48.929Z,25.29
2018-07-23T12:38:18.738Z,25.68
2018-07-23T12:40:48.574Z,26.19
2018-07-23T12:43:18.526Z,26.77
2018-07-23T12:45:48.276Z,27.08
2018-07-23T12:48:18.468Z,27.20
2018-07-23T12:50:47.995Z,27.44
2018-07-23T12:53:17.686Z,27.78
2018-07-23T12:55:47.466Z,28.17
2018-07-23T12:58:17.074Z,28.71
2018-07-23T13:00:46.579Z,29.19
2018-07-23T13:03:16.149Z,29.26
2018-07-23T13:05:45.798Z,29.20
2018-07-23T13:08:15.769Z,28.81
2018-07-23T13:10:45.543Z,29.31
2018-07-23T13:13:15.543Z,28.91
2018-07-23T13:15:45.176Z,28.47
2018-07-23T13:18:15.727Z,26.50
2018-07-23T13:20:45.678Z,25.67
2018-07-23T13:23:15.519Z,24.56
2018-07-23T13:25:45.258Z,23.98
2018-07-23T13:28:15.178Z,23.81
2018-07-23T13:30:46.303Z,23.33
2018-07-23T13:33:16.247Z,22.91
2018-07-23T13:35:46.038Z,22.71
2018-07-23T13:38:16.168Z,22.79
2018-07-23T13:40:45.791Z,22.48
2018-07-23T13:43:15.606Z,22.20
2018-07-23T13:45:45.267Z,22.18
2018-07-23T13:48:14.966Z,22.00
2018-07-23T13:50:45.267Z,21.63
2018-07-23T13:53:15.223Z,21.29
2018-07-23T13:55:44.996Z,20.96
2018-07-23T13:58:14.554Z,21.04
2018-07-23T14:00:44.092Z,20.52
2018-07-23T14:03:13.648Z,20.12
2018-07-23T14:05:43.214Z,19.80
2018-07-23T14:08:12.898Z,19.76
2018-07-23T14:10:42.610Z,19.63
2018-07-23T14:13:12.289Z,19.72
2018-07-23T14:15:42.030Z,19.90
2018-07-23T14:18:11.813Z,20.21
2018-07-23T14:20:41.671Z,20.66
2018-07-23T14:23:11.475Z,21.01
2018-07-23T14:25:41.077Z,21.40
2018-07-23T14:28:10.798Z,21.81
2018-07-23T14:30:40.610Z,22.24
2018-07-23T14:33:10.202Z,22.79
2018-07-23T14:35:39.922Z,23.07
2018-07-23T14:38:10.028Z,23.32
2018-07-23T14:40:40.032Z,23.29
2018-07-23T14:43:09.648Z,23.14
2018-07-23T14:45:39.312Z,23.32
2018-07-23T14:48:09.400Z,23.71
2018-07-23T14:50:39.492Z,23.76
2018-07-23T14:53:09.458Z,24.02
2018-07-23T14:55:39.284Z,24.31
2018-07-23T14:58:09.026Z,24.34
2018-07-23T15:00:38.452Z,24.60
2018-07-23T15:03:08.090Z,24.47
2018-07-23T15:05:37.630Z,24.44
2018-07-23T15:08:07.302Z,24.37
2018-07-23T15:10:37.327Z,24.31
2018-07-23T15:13:07.185Z,24.13
2018-07-23T15:15:36.847Z,24.22
2018-07-23T15:18:06.503Z,24.17
2018-07-23T15:20:36.371Z,24.46
2018-07-23T15:23:06.251Z,24.53
2018-07-23T15:25:35.968Z,24.56
2018-07-23T15:28:05.711Z,24.54
2018-07-23T15:30:35.535Z,24.45
2018-07-23T15:33:05.172Z,24.38
2018-07-23T15:35:34.801Z,24.24
2018-07-23T15:38:04.570Z,23.86
2018-07-23T15:40:34.090Z,23.57
2018-07-23T15:43:03.883Z,23.11
2018-07-23T15:45:33.828Z,22.97
2018-07-23T15:48:03.694Z,22.52
2018-07-23T15:50:33.526Z,22.19
2018-07-23T15:53:03.194Z,21.89
2018-07-23T15:55:34.227Z,21.56
2018-07-23T15:58:04.346Z,21.31
2018-07-23T16:00:33.977Z,21.03
2018-07-23T16:03:03.762Z,20.80
2018-07-23T16:05:33.689Z,20.95
2018-07-23T16:08:03.502Z,20.77
2018-07-23T16:10:33.610Z,20.71
2018-07-23T16:13:03.576Z,20.90
2018-07-23T16:15:33.439Z,21.04
2018-07-23T16:18:03.092Z,21.25
2018-07-23T16:20:33.160Z,21.21
2018-07-23T16:23:03.086Z,21.16
2018-07-23T16:25:32.912Z,21.37
2018-07-23T16:28:02.655Z,21.47
2018-07-23T16:30:32.297Z,21.64
2018-07-23T16:33:01.907Z,21.75
2018-07-23T16:35:31.463Z,22.04
2018-07-23T16:38:01.375Z,22.08
2018-07-23T16:40:31.215Z,22.22
2018-07-23T16:43:00.878Z,22.18
2018-07-23T16:45:37.223Z,22.22
2018-07-23T16:48:07.401Z,21.91
2018-07-23T16:50:37.283Z,22.09
2018-07-23T16:53:08.193Z,21.67
2018-07-23T16:55:37.854Z,21.49
2018-07-23T16:58:07.968Z,21.76
2018-07-23T17:00:37.561Z,21.61
2018-07-23T17:03:07.312Z,21.98
2018-07-23T17:05:37.497Z,22.21
2018-07-23T17:08:07.160Z,22.28
2018-07-23T17:10:37.010Z,22.31
2018-07-23T17:13:06.795Z,22.26
2018-07-23T17:15:37.024Z,22.31
2018-07-23T17:18:07.223Z,22.24
2018-07-23T17:20:36.754Z,22.26
2018-07-23T17:23:06.731Z,22.32
2018-07-23T17:25:36.562Z,22.30
2018-07-23T17:28:06.578Z,22.20
2018-07-23T17:30:36.243Z,21.94
2018-07-23T17:33:06.007Z,21.89
2018-07-23T17:35:36.042Z,21.80
2018-07-23T17:38:06.075Z,21.65
2018-07-23T17:40:36.145Z,21.01
2018-07-23T17:43:06.613Z,21.20
2018-07-23T17:45:36.651Z,20.40
2018-07-23T17:48:06.579Z,19.84
2018-07-23T17:50:36.405Z,20.06
2018-07-23T17:53:06.407Z,19.90
2018-07-23T17:55:36.310Z,20.00
2018-07-23T17:58:06.003Z,19.68
2018-07-23T18:00:35.621Z,19.45
2018-07-23T18:03:05.431Z,19.38
2018-07-23T18:05:35.336Z,19.27
2018-07-23T18:08:05.301Z,19.15
2018-07-23T18:10:35.286Z,18.98
2018-07-23T18:13:05.204Z,18.94
2018-07-23T18:15:35.321Z,18.95
2018-07-23T18:18:05.095Z,18.83
2018-07-23T18:20:34.923Z,18.88
2018-07-23T18:23:04.546Z,18.85
2018-07-23T18:25:34.578Z,18.86
2018-07-23T18:28:04.308Z,18.88
2018-07-23T18:30:33.897Z,18.97
2018-07-23T18:33:03.487Z,19.01
2018-07-23T18:35:33.210Z,18.80
2018-07-23T18:38:03.180Z,18.74
2018-07-23T18:40:32.685Z,18.77
2018-07-23T18:43:02.432Z,18.70
2018-07-23T18:45:32.219Z,18.74
2018-07-23T18:48:01.992Z,18.61
2018-07-23T18:50:31.990Z,18.78
2018-07-23T18:53:01.888Z,18.90
2018-07-23T18:55:31.771Z,18.86
2018-07-23T18:58:01.808Z,18.81
2018-07-23T19:00:31.433Z,18.93
2018-07-23T19:03:01.087Z,18.88
2018-07-23T19:05:31.032Z,18.92
2018-07-23T19:08:00.960Z,18.75
2018-07-23T19:10:30.604Z,18.67
2018-07-23T19:13:00.347Z,18.61
2018-07-23T19:15:30.221Z,18.41
2018-07-23T19:18:00.080Z,18.51
2018-07-23T19:20:30.039Z,18.38
2018-07-23T19:22:59.716Z,18.83
2018-07-23T19:25:29.348Z,19.01
2018-07-23T19:27:58.918Z,19.04
2018-07-23T19:30:28.543Z,18.88
2018-07-23T19:32:58.165Z,18.75
2018-07-23T19:35:27.901Z,18.83
2018-07-23T19:37:57.462Z,18.64
2018-07-23T19:40:27.389Z,18.58
2018-07-23T19:42:57.269Z,18.57
2018-07-23T19:45:26.850Z,18.39
2018-07-23T19:47:56.424Z,18.37
2018-07-23T19:50:26.947Z,18.17
2018-07-23T19:52:57.589Z,18.17
2018-07-23T19:55:27.991Z,18.08
2018-07-23T19:57:57.693Z,18.12
2018-07-23T20:00:27.214Z,18.29
2018-07-23T20:02:56.753Z,18.29
2018-07-23T20:05:26.693Z,18.31
2018-07-23T20:07:56.403Z,18.14
2018-07-23T20:10:26.369Z,18.06
2018-07-23T20:12:56.342Z,18.19
2018-07-23T20:15:26.304Z,18.14
2018-07-23T20:17:56.550Z,18.33
2018-07-23T20:20:26.346Z,18.40
2018-07-23T20:22:55.994Z,18.33
2018-07-23T20:25:25.837Z,18.25
2018-07-23T20:27:55.891Z,18.29
2018-07-23T20:30:25.606Z,18.37
2018-07-23T20:32:55.253Z,18.37
2018-07-23T20:35:24.903Z,18.44
2018-07-23T20:37:54.743Z,18.59
2018-07-23T20:40:24.826Z,18.71
2018-07-23T20:42:55.198Z,18.62
2018-07-23T20:45:25.206Z,18.69
2018-07-23T20:47:55.289Z,18.77
2018-07-23T20:50:24.868Z,18.61
2018-07-23T20:52:54.600Z,18.63
2018-07-23T20:55:24.828Z,18.62
2018-07-23T20:57:54.377Z,18.69
2018-07-23T21:00:23.914Z,18.60
2018-07-23T21:02:53.695Z,18.63
2018-07-23T21:05:23.393Z,18.64
2018-07-23T21:07:53.135Z,18.64
2018-07-23T21:10:23.228Z,18.50
2018-07-23T21:12:52.989Z,18.44
2018-07-23T21:15:22.827Z,18.30
2018-07-23T21:17:52.610Z,18.19
2018-07-23T21:20:22.371Z,17.99
2018-07-23T21:22:52.165Z,17.84
2018-07-23T21:25:21.983Z,17.77
2018-07-23T21:27:51.598Z,17.63
2018-07-23T21:30:21.458Z,17.65
2018-07-23T21:32:51.247Z,17.61
2018-07-23T21:35:20.753Z,17.51
2018-07-23T21:37:50.414Z,17.44
2018-07-23T21:40:20.317Z,17.46
2018-07-23T21:42:50.233Z,17.61
2018-07-23T21:45:19.871Z,17.60
2018-07-23T21:47:49.854Z,17.66
2018-07-23T21:50:19.757Z,17.73
2018-07-23T21:52:49.564Z,17.75
2018-07-23T21:55:19.247Z,17.78
2018-07-23T21:57:48.982Z,17.69
2018-07-23T22:00:18.614Z,17.58
2018-07-23T22:02:48.623Z,17.47
2018-07-23T22:05:18.390Z,17.58
2018-07-23T22:07:48.258Z,17.44
2018-07-23T22:10:17.898Z,17.43
2018-07-23T22:12:47.799Z,17.50
2018-07-23T22:15:17.811Z,17.49
2018-07-23T22:17:47.357Z,17.58
2018-07-23T22:20:17.127Z,17.64
2018-07-23T22:22:46.988Z,17.62
2018-07-23T22:25:16.915Z,17.64
2018-07-23T22:27:46.965Z,17.62
2018-07-23T22:30:16.690Z,17.58
2018-07-23T22:32:46.426Z,17.55
2018-07-23T22:35:16.293Z,17.63
2018-07-23T22:37:46.253Z,17.62
2018-07-23T22:40:16.198Z,17.60
2018-07-23T22:42:46.258Z,17.62
2018-07-23T22:45:16.027Z,17.48
2018-07-23T22:47:45.946Z,17.42
2018-07-23T22:50:15.656Z,17.40
2018-07-23T22:52:45.578Z,17.40
2018-07-23T22:55:15.281Z,17.49
2018-07-23T22:57:45.003Z,17.56
2018-07-23T23:00:14.746Z,17.55
2018-07-23T23:02:44.364Z,17.58
2018-07-23T23:05:13.955Z,17.50
2018-07-23T23:07:43.733Z,17.57
2018-07-23T23:10:13.557Z,17.51
2018-07-23T23:12:43.302Z,17.57
2018-07-23T23:15:13.161Z,17.56
2018-07-23T23:17:42.922Z,17.56
2018-07-23T23:20:12.680Z,17.50
2018-07-23T23:22:42.625Z,17.61
2018-07-23T23:25:12.227Z,17.46
2018-07-23T23:27:41.843Z,17.47
2018-07-23T23:30:12.077Z,17.55
2018-07-23T23:32:41.845Z,17.59
2018-07-23T23:37:46.524Z,17.53
2018-07-23T23:40:16.462Z,17.63
2018-07-23T23:42:46.020Z,17.57
2018-07-23T23:45:15.986Z,17.58
2018-07-23T23:47:45.898Z,17.69
2018-07-23T23:50:15.774Z,17.63
2018-07-23T23:52:45.542Z,17.80
2018-07-23T23:55:15.242Z,17.70
2018-07-23T23:57:44.871Z,17.74
